Time;durP1;ratioP1;P1;durP2;ratioP2;P2;SDS_P1;SDS_P2;PMS_P1;PMS_P2;Temp;Humidity;BMP_temperature;BMP_pressure;BME280_temperature;BME280_humidity;BME280_pressure;Samples;Min_cycle;Max_cycle;Signal;HPM_P1;HPM_P2
2023/07/28 00:01:29;;;;;;;0.10;0.10;;;18.50;99.90;;;;;;5037254;28;20237;-80
2023/07/28 00:03:54;;;;;;;0.10;0.10;;;18.50;99.90;;;;;;5038030;28;20190;-82
2023/07/28 00:06:20;;;;;;;0.10;0.10;;;18.50;99.90;;;;;;5035241;28;20192;-81
2023/07/28 00:08:45;;;;;;;0.10;0.10;;;18.40;99.90;;;;;;5035176;28;20191;-81
2023/07/28 00:11:14;;;;;;;0.10;0.10;;;18.30;99.90;;;;;;5035018;28;20211;-81
2023/07/28 00:13:41;;;;;;;0.10;0.10;;;18.30;99.90;;;;;;5038694;28;20179;-81
2023/07/28 00:16:07;;;;;;;0.10;0.10;;;18.30;99.90;;;;;;5035269;28;20273;-82
2023/07/28 00:18:33;;;;;;;0.10;0.10;;;18.40;99.90;;;;;;5038100;28;20898;-81
2023/07/28 00:20:58;;;;;;;0.10;0.10;;;18.40;99.90;;;;;;5034302;28;20205;-81
2023/07/28 00:23:24;;;;;;;0.10;0.10;;;18.40;99.90;;;;;;5039490;28;20252;-80
2023/07/28 00:25:50;;;;;;;0.10;0.10;;;18.30;99.90;;;;;;5034908;28;20541;-80
2023/07/28 00:28:15;;;;;;;0.10;0.10;;;18.40;99.90;;;;;;5033848;28;20193;-80
2023/07/28 00:30:41;;;;;;;0.10;0.10;;;18.40;99.90;;;;;;5035283;28;20296;-81
2023/07/28 00:33:06;;;;;;;0.10;0.10;;;18.30;99.90;;;;;;5035417;28;20278;-80
2023/07/28 00:35:32;;;;;;;0.10;0.10;;;18.30;99.90;;;;;;5036514;28;20293;-81
2023/07/28 00:37:58;;;;;;;0.10;0.10;;;18.30;99.90;;;;;;5035780;28;20182;-81
2023/07/28 00:40:23;;;;;;;0.10;0.10;;;18.30;99.90;;;;;;5036783;28;20195;-80
2023/07/28 00:42:49;;;;;;;0.10;0.10;;;18.30;99.90;;;;;;5036344;28;20233;-80
2023/07/28 00:45:15;;;;;;;0.10;0.10;;;18.30;99.90;;;;;;5036987;28;20754;-81
2023/07/28 00:47:41;;;;;;;0.10;0.10;;;18.10;99.90;;;;;;5038442;28;20652;-80
2023/07/28 00:50:09;;;;;;;0.10;0.10;;;18.10;99.90;;;;;;5035577;28;20197;-82
2023/07/28 00:52:35;;;;;;;0.10;0.10;;;18.20;99.90;;;;;;5035277;28;20202;-82
2023/07/28 00:55:01;;;;;;;0.10;0.10;;;18.30;99.90;;;;;;5036256;28;21304;-82
2023/07/28 00:57:27;;;;;;;0.10;0.10;;;18.30;99.90;;;;;;5034827;28;20185;-81
2023/07/28 00:59:53;;;;;;;0.10;0.10;;;18.20;99.90;;;;;;5036986;28;20185;-82
2023/07/28 01:02:20;;;;;;;0.10;0.10;;;18.10;99.90;;;;;;5037235;28;20263;-81
2023/07/28 01:04:45;;;;;;;0.10;0.10;;;18.30;99.90;;;;;;5039781;28;20235;-81
2023/07/28 01:07:21;;;;;;;0.10;0.10;;;18.30;99.90;;;;;;5036002;28;20205;-81
2023/07/28 01:09:50;;;;;;;0.10;0.10;;;18.10;99.90;;;;;;5035542;28;20273;-81
2023/07/28 01:12:15;;;;;;;0.10;0.10;;;18.00;99.90;;;;;;5035973;28;20676;-81
2023/07/28 01:14:41;;;;;;;0.10;0.10;;;18.00;99.90;;;;;;5035458;28;20186;-80
2023/07/28 01:17:06;;;;;;;0.10;0.10;;;18.00;99.90;;;;;;5034372;28;20209;-80
2023/07/28 01:19:32;;;;;;;0.10;0.10;;;18.00;99.90;;;;;;5034406;28;20328;-81
2023/07/28 01:22:38;;;;;;;0.10;0.10;;;17.90;99.90;;;;;;5035422;28;20209;-80
2023/07/28 01:25:18;;;;;;;0.10;0.10;;;17.90;99.90;;;;;;5014640;28;20678;-79
2023/07/28 01:27:45;;;;;;;0.10;0.10;;;17.90;99.90;;;;;;5035690;28;20179;-81
2023/07/28 01:30:11;;;;;;;0.10;0.10;;;18.10;99.90;;;;;;5033605;28;20688;-81
2023/07/28 01:32:37;;;;;;;0.10;0.10;;;18.20;99.90;;;;;;5039365;28;20221;-80
2023/07/28 01:35:03;;;;;;;0.10;0.10;;;18.30;99.90;;;;;;5035843;28;20193;-80
2023/07/28 01:37:29;;;;;;;0.10;0.10;;;18.30;99.90;;;;;;5033979;28;20197;-81
2023/07/28 01:39:55;;;;;;;0.10;0.10;;;18.30;99.90;;;;;;5034737;28;20194;-81
2023/07/28 01:42:20;;;;;;;0.10;0.10;;;18.30;99.90;;;;;;5033556;28;20277;-81
2023/07/28 01:44:46;;;;;;;0.10;0.10;;;18.40;99.90;;;;;;5036949;28;20186;-81
2023/07/28 01:47:11;;;;;;;0.10;0.10;;;18.40;99.90;;;;;;5033350;28;20198;-81
2023/07/28 01:49:37;;;;;;;0.10;0.10;;;18.50;99.90;;;;;;5035724;28;20229;-81
2023/07/28 01:52:03;;;;;;;0.10;0.10;;;18.50;99.90;;;;;;5037555;28;20217;-81
2023/07/28 01:54:28;;;;;;;0.10;0.10;;;18.60;99.90;;;;;;5034790;28;20956;-81
2023/07/28 01:56:54;;;;;;;0.10;0.10;;;18.70;99.90;;;;;;5040371;28;20182;-81
2023/07/28 01:59:20;;;;;;;0.10;0.10;;;18.60;99.90;;;;;;5039786;28;20193;-81
2023/07/28 02:01:46;;;;;;;0.10;0.10;;;18.60;99.90;;;;;;5039881;28;20293;-81
2023/07/28 02:04:12;;;;;;;0.10;0.10;;;18.60;99.90;;;;;;5039051;28;20189;-80
2023/07/28 02:06:37;;;;;;;0.10;0.10;;;18.60;99.90;;;;;;5038105;28;20296;-80
2023/07/28 02:09:03;;;;;;;0.10;0.10;;;18.60;99.90;;;;;;5037677;28;20624;-82
2023/07/28 02:11:29;;;;;;;0.10;0.10;;;18.60;99.90;;;;;;5040558;28;20202;-80
2023/07/28 02:13:54;;;;;;;0.10;0.10;;;18.50;99.90;;;;;;5037785;28;20186;-82
2023/07/28 02:16:20;;;;;;;0.10;0.10;;;18.50;99.90;;;;;;5038265;28;20195;-82
2023/07/28 02:18:45;;;;;;;0.10;0.10;;;18.50;99.90;;;;;;5039278;28;20261;-82
2023/07/28 02:21:11;;;;;;;0.10;0.10;;;18.40;99.90;;;;;;5039991;28;20622;-81
2023/07/28 02:23:36;;;;;;;0.10;0.10;;;18.40;99.90;;;;;;5040204;28;20182;-82
2023/07/28 02:26:02;;;;;;;0.10;0.10;;;18.40;99.90;;;;;;5038098;28;20240;-82
2023/07/28 02:28:27;;;;;;;0.10;0.10;;;18.50;99.90;;;;;;5038925;28;20782;-82
2023/07/28 02:30:53;;;;;;;0.10;0.10;;;18.50;99.90;;;;;;5038080;28;20214;-81
2023/07/28 02:33:19;;;;;;;0.10;0.10;;;18.50;99.90;;;;;;5040872;28;20226;-81
2023/07/28 02:35:44;;;;;;;0.10;0.10;;;18.40;99.90;;;;;;5038141;28;20198;-82
2023/07/28 02:38:10;;;;;;;0.10;0.10;;;18.50;99.90;;;;;;5040365;28;20180;-81
2023/07/28 02:40:35;;;;;;;0.10;0.10;;;18.50;99.90;;;;;;5040244;28;20199;-82
2023/07/28 02:43:01;;;;;;;0.10;0.10;;;18.40;99.90;;;;;;5037555;28;20214;-81
2023/07/28 02:45:26;;;;;;;0.10;0.10;;;18.40;99.90;;;;;;5038676;28;20214;-81
2023/07/28 02:47:52;;;;;;;0.10;0.10;;;18.40;99.90;;;;;;5038426;28;20216;-82
2023/07/28 02:50:17;;;;;;;0.10;0.10;;;18.40;99.90;;;;;;5038926;28;20275;-82
2023/07/28 02:52:43;;;;;;;0.10;0.10;;;18.40;99.90;;;;;;5036248;28;20347;-81
2023/07/28 02:55:08;;;;;;;0.10;0.10;;;18.40;99.90;;;;;;5038814;28;20193;-80
2023/07/28 02:57:34;;;;;;;0.10;0.10;;;18.30;99.90;;;;;;5037077;28;20197;-82
2023/07/28 02:59:59;;;;;;;0.10;0.10;;;18.30;99.90;;;;;;5037140;28;20194;-81
2023/07/28 03:02:25;;;;;;;0.10;0.10;;;18.40;99.90;;;;;;5040987;28;20206;-81
2023/07/28 03:04:50;;;;;;;0.10;0.10;;;18.30;99.90;;;;;;5041360;28;20277;-82
2023/07/28 03:07:17;;;;;;;0.10;0.10;;;18.30;99.90;;;;;;5035989;28;20190;-81
2023/07/28 03:09:43;;;;;;;0.10;0.10;;;18.30;99.90;;;;;;5036820;28;20213;-82
2023/07/28 03:12:08;;;;;;;0.10;0.10;;;18.30;99.90;;;;;;5035771;28;20268;-82
2023/07/28 03:14:34;;;;;;;0.10;0.10;;;18.40;99.90;;;;;;5029143;28;20286;-83
2023/07/28 03:16:59;;;;;;;0.10;0.10;;;18.40;99.90;;;;;;5031344;28;20209;-80
2023/07/28 03:19:25;;;;;;;0.10;0.10;;;18.40;99.90;;;;;;5034588;28;20196;-83
2023/07/28 03:21:50;;;;;;;0.10;0.10;;;18.40;99.90;;;;;;5037484;28;20271;-82
2023/07/28 03:24:16;;;;;;;0.10;0.10;;;18.40;99.90;;;;;;5038421;28;20186;-81
2023/07/28 03:26:41;;;;;;;0.10;0.10;;;18.40;99.90;;;;;;5038257;28;20674;-81
2023/07/28 03:29:07;;;;;;;0.10;0.10;;;18.50;99.90;;;;;;5035284;28;20561;-82
2023/07/28 03:31:35;;;;;;;0.10;0.10;;;18.50;99.90;;;;;;5039510;28;20207;-82
2023/07/28 03:34:01;;;;;;;0.10;0.10;;;18.40;99.90;;;;;;5038808;28;20313;-81
2023/07/28 03:36:26;;;;;;;0.10;0.10;;;18.40;99.90;;;;;;5035947;28;20346;-82
2023/07/28 03:38:52;;;;;;;0.10;0.10;;;18.40;99.90;;;;;;5037666;28;20334;-82
2023/07/28 03:41:18;;;;;;;0.10;0.10;;;18.40;99.90;;;;;;5037579;28;20194;-82
2023/07/28 03:43:43;;;;;;;0.10;0.10;;;18.50;99.90;;;;;;5029486;28;20292;-82
2023/07/28 03:46:09;;;;;;;0.10;0.10;;;18.50;99.90;;;;;;5031233;28;20179;-82
2023/07/28 03:48:35;;;;;;;0.10;0.10;;;18.50;99.90;;;;;;5029556;28;20270;-82
2023/07/28 03:51:00;;;;;;;0.10;0.10;;;18.50;99.90;;;;;;5026734;28;21262;-82
2023/07/28 03:53:26;;;;;;;0.10;0.10;;;18.50;99.90;;;;;;5030664;28;20183;-83
2023/07/28 03:55:51;;;;;;;0.10;0.10;;;18.40;99.90;;;;;;5031451;28;21108;-82
2023/07/28 03:58:17;;;;;;;0.10;0.10;;;18.40;99.90;;;;;;5031574;28;20186;-83
2023/07/28 04:00:42;;;;;;;0.10;0.10;;;18.40;99.90;;;;;;5032879;28;20275;-82
2023/07/28 04:03:07;;;;;;;0.10;0.10;;;18.40;99.90;;;;;;5032000;28;20197;-83
2023/07/28 04:05:35;;;;;;;0.10;0.10;;;18.40;99.90;;;;;;5030063;28;20696;-82
2023/07/28 04:08:01;;;;;;;0.10;0.10;;;18.50;99.90;;;;;;5030756;28;20194;-82
2023/07/28 04:10:27;;;;;;;0.10;0.10;;;18.50;99.90;;;;;;5030650;28;20731;-82
2023/07/28 04:12:52;;;;;;;0.10;0.10;;;18.50;99.90;;;;;;5029690;28;20264;-82
2023/07/28 04:15:18;;;;;;;0.10;0.10;;;18.50;99.90;;;;;;5032033;28;20273;-82
2023/07/28 04:17:43;;;;;;;0.10;0.10;;;18.50;99.90;;;;;;5030954;28;20651;-82
2023/07/28 04:20:09;;;;;;;0.10;0.10;;;18.40;99.90;;;;;;5031456;28;20240;-82
2023/07/28 04:22:35;;;;;;;0.10;0.10;;;18.50;99.90;;;;;;5028540;28;20654;-82
2023/07/28 04:25:00;;;;;;;0.10;0.10;;;18.40;99.90;;;;;;5026595;28;20742;-83
2023/07/28 04:27:26;;;;;;;0.10;0.10;;;18.40;99.90;;;;;;5028771;28;20189;-82
2023/07/28 04:29:51;;;;;;;0.10;0.10;;;18.40;99.90;;;;;;5032094;28;21060;-82
2023/07/28 04:32:17;;;;;;;0.10;0.10;;;18.50;99.90;;;;;;5030080;28;20310;-82
2023/07/28 04:34:42;;;;;;;0.10;0.10;;;18.60;99.90;;;;;;5032430;28;20567;-82
2023/07/28 04:37:08;;;;;;;0.03;0.03;;;18.70;99.90;;;;;;5031626;28;20449;-81
2023/07/28 04:39:33;;;;;;;0.10;0.10;;;18.60;99.90;;;;;;5031223;28;20191;-82
2023/07/28 04:41:59;;;;;;;0.10;0.10;;;18.70;99.90;;;;;;5032007;28;20215;-81
2023/07/28 04:44:24;;;;;;;0.10;0.10;;;18.80;99.90;;;;;;5028045;28;20190;-83
2023/07/28 04:46:50;;;;;;;0.10;0.10;;;18.70;99.90;;;;;;5028905;28;20185;-82
2023/07/28 04:49:15;;;;;;;0.10;0.10;;;18.50;99.90;;;;;;5032845;28;20211;-79
2023/07/28 04:51:41;;;;;;;0.10;0.10;;;18.60;99.90;;;;;;5032293;28;20204;-80
2023/07/28 04:54:06;;;;;;;0.10;0.10;;;18.70;99.90;;;;;;5027607;28;20736;-79
2023/07/28 04:56:32;;;;;;;0.10;0.10;;;18.50;99.90;;;;;;5032064;28;20191;-79
2023/07/28 04:58:58;;;;;;;0.10;0.10;;;18.20;99.90;;;;;;5030599;28;20249;-79
2023/07/28 05:01:25;;;;;;;0.10;0.10;;;18.00;99.90;;;;;;5029310;28;20191;-82
2023/07/28 05:03:50;;;;;;;0.10;0.10;;;18.00;99.90;;;;;;5030916;28;20187;-82
2023/07/28 05:06:16;;;;;;;0.10;0.10;;;18.00;99.90;;;;;;5025833;28;20656;-81
2023/07/28 05:08:42;;;;;;;0.10;0.10;;;18.10;99.90;;;;;;5030082;28;20172;-81
2023/07/28 05:11:07;;;;;;;0.10;0.10;;;18.30;99.90;;;;;;5032044;28;20637;-81
2023/07/28 05:13:33;;;;;;;0.10;0.10;;;18.50;99.90;;;;;;5030502;28;20671;-81
2023/07/28 05:15:59;;;;;;;0.10;0.10;;;18.50;99.90;;;;;;5030321;28;20201;-81
2023/07/28 05:18:25;;;;;;;0.10;0.10;;;18.60;99.90;;;;;;5030611;28;20181;-80
2023/07/28 05:20:50;;;;;;;0.10;0.10;;;18.40;99.90;;;;;;5033460;28;20240;-83
2023/07/28 05:23:16;;;;;;;0.10;0.10;;;18.40;99.90;;;;;;5048417;28;20198;-82
2023/07/28 05:25:41;;;;;;;0.10;0.10;;;18.60;99.90;;;;;;5028823;28;20194;-82
2023/07/28 05:28:07;;;;;;;0.10;0.10;;;18.70;99.90;;;;;;5050551;28;20724;-82
2023/07/28 05:30:32;;;;;;;0.10;0.10;;;18.90;99.90;;;;;;5033233;28;20304;-82
2023/07/28 05:32:58;;;;;;;0.10;0.10;;;19.00;99.90;;;;;;5035487;28;21023;-83
2023/07/28 05:35:23;;;;;;;0.10;0.10;;;19.20;99.90;;;;;;5037688;28;20233;-82
2023/07/28 05:37:49;;;;;;;0.10;0.10;;;19.50;99.90;;;;;;5038327;28;20185;-82
2023/07/28 05:40:14;;;;;;;0.10;0.10;;;19.80;99.90;;;;;;5037696;28;20690;-82
2023/07/28 05:42:40;;;;;;;0.10;0.10;;;20.20;99.90;;;;;;5037408;28;20198;-82
2023/07/28 05:45:06;;;;;;;0.10;0.10;;;20.40;99.90;;;;;;5035672;28;20679;-81
2023/07/28 05:47:31;;;;;;;0.10;0.10;;;20.50;99.90;;;;;;5027493;28;20205;-81
2023/07/28 05:49:57;;;;;;;0.10;0.10;;;20.60;99.90;;;;;;5035485;28;20214;-80
2023/07/28 05:52:22;;;;;;;0.10;0.10;;;20.60;99.90;;;;;;5037975;28;20328;-81
2023/07/28 05:54:48;;;;;;;0.10;0.10;;;20.70;99.90;;;;;;5036584;28;20220;-82
2023/07/28 05:57:13;;;;;;;0.10;0.10;;;21.00;99.90;;;;;;5029735;28;20302;-82
2023/07/28 05:59:39;;;;;;;0.10;0.10;;;21.30;99.90;;;;;;5032879;28;20293;-82
2023/07/28 06:02:05;;;;;;;0.10;0.10;;;21.60;99.90;;;;;;5052206;28;20275;-82
2023/07/28 06:04:31;;;;;;;0.10;0.10;;;21.80;99.90;;;;;;5038790;28;20174;-82
2023/07/28 06:06:56;;;;;;;0.10;0.10;;;21.80;99.90;;;;;;5036773;28;20190;-82
2023/07/28 06:09:22;;;;;;;0.10;0.10;;;21.90;99.90;;;;;;5033243;28;20215;-82
2023/07/28 06:11:47;;;;;;;0.10;0.10;;;21.70;99.90;;;;;;5035715;28;20248;-82
2023/07/28 06:14:13;;;;;;;0.10;0.10;;;21.80;99.90;;;;;;5033876;28;20544;-81
2023/07/28 06:16:39;;;;;;;0.10;0.10;;;21.70;99.90;;;;;;5033523;28;20189;-81
2023/07/28 06:19:05;;;;;;;0.10;0.10;;;21.80;99.90;;;;;;5035627;28;20186;-81
2023/07/28 06:21:30;;;;;;;0.10;0.10;;;22.10;99.90;;;;;;5030714;28;20197;-82
2023/07/28 06:23:55;;;;;;;0.10;0.10;;;22.20;99.90;;;;;;5035019;28;20197;-83
2023/07/28 06:26:21;;;;;;;0.10;0.10;;;22.20;99.90;;;;;;5036248;28;20216;-82
2023/07/28 06:28:46;;;;;;;0.10;0.10;;;22.30;99.90;;;;;;5032242;28;20285;-82
2023/07/28 06:31:12;;;;;;;0.10;0.10;;;22.60;99.90;;;;;;5033081;28;20306;-81
2023/07/28 06:33:37;;;;;;;0.10;0.10;;;22.80;99.90;;;;;;5034351;28;20198;-83
2023/07/28 06:36:04;;;;;;;0.10;0.10;;;22.90;99.90;;;;;;5034137;28;20197;-83
2023/07/28 06:38:30;;;;;;;0.10;0.10;;;23.00;99.90;;;;;;5028031;28;20719;-82
2023/07/28 06:40:56;;;;;;;0.10;0.10;;;22.90;99.90;;;;;;5033561;28;20301;-82
2023/07/28 06:43:21;;;;;;;0.10;0.10;;;23.00;99.90;;;;;;5035858;28;20902;-82
2023/07/28 06:45:50;;;;;;;0.10;0.10;;;22.90;99.90;;;;;;5032316;28;20264;-82
2023/07/28 06:48:16;;;;;;;0.10;0.10;;;22.70;99.90;;;;;;5034145;28;20182;-82
2023/07/28 06:50:41;;;;;;;0.10;0.10;;;22.70;99.90;;;;;;5032245;28;21068;-82
2023/07/28 06:53:07;;;;;;;0.10;0.10;;;22.70;99.90;;;;;;5029916;28;20209;-83
2023/07/28 06:55:32;;;;;;;0.10;0.10;;;22.60;99.90;;;;;;5030176;28;25139;-80
2023/07/28 06:57:58;;;;;;;0.10;0.10;;;22.40;99.90;;;;;;5031524;28;20189;-79
2023/07/28 07:00:23;;;;;;;0.10;0.10;;;22.20;99.90;;;;;;5027623;28;20191;-80
2023/07/28 07:02:49;;;;;;;0.10;0.10;;;22.20;99.90;;;;;;5031296;28;20202;-80
2023/07/28 07:05:14;;;;;;;0.10;0.10;;;22.10;99.90;;;;;;5026307;28;20197;-80
2023/07/28 07:07:40;;;;;;;0.10;0.10;;;22.00;99.90;;;;;;5025629;28;20225;-79
2023/07/28 07:10:07;;;;;;;0.10;0.10;;;21.90;99.90;;;;;;5030515;28;20213;-79
2023/07/28 07:12:32;;;;;;;0.10;0.10;;;21.90;99.90;;;;;;5030658;28;20264;-81
2023/07/28 07:14:58;;;;;;;0.10;0.10;;;21.80;99.90;;;;;;5035407;28;20182;-82
2023/07/28 07:17:23;;;;;;;0.10;0.10;;;21.70;99.90;;;;;;5037437;28;20189;-81
2023/07/28 07:19:49;;;;;;;0.10;0.10;;;21.60;99.90;;;;;;5031141;28;20673;-82
2023/07/28 07:22:14;;;;;;;0.10;0.10;;;21.70;99.90;;;;;;5032158;28;20237;-84
2023/07/28 07:24:40;;;;;;;0.10;0.10;;;21.70;99.90;;;;;;5032773;28;20301;-81
2023/07/28 07:27:06;;;;;;;0.10;0.10;;;21.70;99.90;;;;;;5025700;28;20232;-82
2023/07/28 07:29:31;;;;;;;0.10;0.10;;;21.80;99.90;;;;;;5033584;28;20229;-82
2023/07/28 07:31:57;;;;;;;0.10;0.10;;;21.90;99.90;;;;;;5031251;28;20635;-82
2023/07/28 07:34:23;;;;;;;0.10;0.10;;;21.90;99.90;;;;;;5031937;28;20187;-82
2023/07/28 07:36:49;;;;;;;0.10;0.10;;;22.00;99.90;;;;;;5032437;28;20189;-82
2023/07/28 07:39:15;;;;;;;0.10;0.10;;;22.10;99.90;;;;;;5028230;28;20655;-82
2023/07/28 07:41:41;;;;;;;0.10;0.10;;;22.20;99.90;;;;;;5030235;28;20206;-82
2023/07/28 07:44:06;;;;;;;0.10;0.10;;;22.10;99.90;;;;;;5032848;28;20179;-82
2023/07/28 07:46:32;;;;;;;0.10;0.10;;;22.30;99.90;;;;;;5032522;28;20283;-81
2023/07/28 07:48:57;;;;;;;0.10;0.10;;;22.50;99.90;;;;;;5031819;28;20273;-81
2023/07/28 07:51:23;;;;;;;0.10;0.10;;;22.80;99.90;;;;;;5036369;28;21121;-82
2023/07/28 07:53:48;;;;;;;0.10;0.10;;;22.80;99.90;;;;;;5031836;28;20244;-81
2023/07/28 07:56:14;;;;;;;0.10;0.10;;;22.60;99.90;;;;;;5029859;28;20194;-80
2023/07/28 07:58:40;;;;;;;0.10;0.10;;;22.60;99.90;;;;;;5032296;28;20184;-81
2023/07/28 08:01:05;;;;;;;0.10;0.10;;;22.80;99.90;;;;;;5028753;28;20568;-81
2023/07/28 08:03:36;;;;;;;0.10;0.10;;;23.00;99.90;;;;;;5031096;28;20190;-80
2023/07/28 08:06:02;;;;;;;0.10;0.10;;;23.30;99.90;;;;;;5032343;28;21195;-82
2023/07/28 08:08:27;;;;;;;0.10;0.10;;;23.40;99.90;;;;;;5030317;28;20187;-81
2023/07/28 08:10:53;;;;;;;0.10;0.10;;;23.10;99.90;;;;;;5031869;28;20214;-82
2023/07/28 08:13:18;;;;;;;0.10;0.10;;;23.10;99.90;;;;;;5031643;28;20198;-80
2023/07/28 08:15:45;;;;;;;0.10;0.10;;;23.30;99.90;;;;;;5031265;28;20725;-81
2023/07/28 08:18:13;;;;;;;0.10;0.10;;;23.40;99.90;;;;;;5030342;28;20189;-81
2023/07/28 08:20:39;;;;;;;0.10;0.10;;;23.50;99.90;;;;;;5029614;28;20240;-81
2023/07/28 08:23:05;;;;;;;0.10;0.10;;;24.00;99.90;;;;;;5027443;28;20217;-81
2023/07/28 08:25:30;;;;;;;0.10;0.10;;;24.00;99.90;;;;;;5032251;28;20260;-82
2023/07/28 08:27:56;;;;;;;0.10;0.10;;;23.60;99.90;;;;;;5028274;28;20675;-81
2023/07/28 08:30:21;;;;;;;0.10;0.10;;;23.70;99.90;;;;;;5030114;28;20982;-82
2023/07/28 08:32:47;;;;;;;0.10;0.10;;;24.00;99.90;;;;;;5031477;28;20221;-79
2023/07/28 08:35:12;;;;;;;0.10;0.10;;;23.90;99.90;;;;;;5032503;28;20232;-80
2023/07/28 08:37:38;;;;;;;0.10;0.10;;;23.70;99.90;;;;;;5046921;28;20637;-82
2023/07/28 08:40:08;;;;;;;0.10;0.10;;;23.60;99.90;;;;;;5032004;28;20281;-82
2023/07/28 08:42:38;;;;;;;0.10;0.10;;;23.90;99.90;;;;;;5032615;28;20578;-82
2023/07/28 08:45:05;;;;;;;0.10;0.10;;;23.90;99.90;;;;;;5030395;28;20260;-82
2023/07/28 08:47:31;;;;;;;0.10;0.10;;;23.90;99.90;;;;;;5030954;28;21100;-82
2023/07/28 08:49:57;;;;;;;0.10;0.10;;;24.10;99.90;;;;;;5029082;28;20217;-82
2023/07/28 08:52:23;;;;;;;0.10;0.10;;;24.20;99.90;;;;;;5028741;28;20252;-82
2023/07/28 08:54:49;;;;;;;0.10;0.10;;;24.20;99.90;;;;;;5029264;28;20185;-83
2023/07/28 08:57:15;;;;;;;0.10;0.10;;;24.40;99.90;;;;;;5031153;28;20585;-80
2023/07/28 08:59:47;;;;;;;0.10;0.10;;;24.60;99.90;;;;;;5033635;28;20240;-80
2023/07/28 09:02:15;;;;;;;0.10;0.10;;;24.50;99.90;;;;;;5035210;28;20292;-82
2023/07/28 09:04:41;;;;;;;0.10;0.10;;;24.50;99.90;;;;;;5031719;28;20220;-82
2023/07/28 09:07:06;;;;;;;0.10;0.10;;;24.50;99.90;;;;;;5035344;28;21228;-81
2023/07/28 09:09:33;;;;;;;0.10;0.10;;;24.50;99.90;;;;;;5037304;28;20205;-82
2023/07/28 09:12:00;;;;;;;0.10;0.10;;;24.50;99.90;;;;;;5038252;28;20244;-82
2023/07/28 09:14:25;;;;;;;0.10;0.10;;;24.40;99.90;;;;;;5038249;28;20718;-80
2023/07/28 09:16:51;;;;;;;0.10;0.10;;;24.60;99.90;;;;;;5039503;28;20238;-82
2023/07/28 09:19:17;;;;;;;0.10;0.10;;;24.50;99.90;;;;;;5036711;28;20194;-83
2023/07/28 09:21:45;;;;;;;0.10;0.10;;;24.50;99.90;;;;;;5037600;28;20220;-82
2023/07/28 09:24:12;;;;;;;0.10;0.10;;;24.80;99.90;;;;;;5040414;28;20212;-81
2023/07/28 09:26:45;;;;;;;0.10;0.10;;;24.70;99.90;;;;;;5045489;28;20190;-82
2023/07/28 09:29:19;;;;;;;0.10;0.10;;;24.60;99.90;;;;;;5034084;28;20217;-81
2023/07/28 09:31:46;;;;;;;0.10;0.10;;;24.40;99.90;;;;;;5037444;28;20261;-81
2023/07/28 09:34:13;;;;;;;0.10;0.10;;;24.30;99.90;;;;;;5036223;28;22084;-81
2023/07/28 09:36:39;;;;;;;0.10;0.10;;;24.60;99.90;;;;;;5050687;28;20213;-82
2023/07/28 09:39:08;;;;;;;0.10;0.10;;;24.80;99.90;;;;;;5033753;28;20197;-80
2023/07/28 09:41:38;;;;;;;0.10;0.10;;;25.20;99.90;;;;;;5037405;28;20203;-79
2023/07/28 09:44:05;;;;;;;0.10;0.10;;;26.00;99.90;;;;;;5034879;28;20174;-80
2023/07/28 09:46:33;;;;;;;0.10;0.10;;;26.20;99.90;;;;;;5039052;28;20213;-80
2023/07/28 09:49:03;;;;;;;0.10;0.10;;;25.80;99.90;;;;;;5032824;28;20197;-80
2023/07/28 09:51:31;;;;;;;0.10;0.10;;;25.70;99.90;;;;;;5038618;28;20236;-80
2023/07/28 09:54:16;;;;;;;0.10;0.10;;;25.70;99.90;;;;;;5037766;28;20194;-80
2023/07/28 09:56:44;;;;;;;0.10;0.10;;;25.90;99.90;;;;;;5036911;28;20194;-80
2023/07/28 09:59:16;;;;;;;0.10;0.10;;;25.90;99.90;;;;;;5038541;28;20627;-81
2023/07/28 10:01:45;;;;;;;0.10;0.10;;;25.70;99.90;;;;;;5031329;28;20579;-80
2023/07/28 10:04:10;;;;;;;0.10;0.10;;;25.90;99.90;;;;;;5032627;28;20177;-81
2023/07/28 10:06:37;;;;;;;0.10;0.10;;;26.30;99.90;;;;;;5035211;28;20193;-80
2023/07/28 10:09:05;;;;;;;0.10;0.10;;;26.70;99.90;;;;;;5036367;28;20252;-80
2023/07/28 10:11:31;;;;;;;0.10;0.10;;;26.60;99.90;;;;;;5038849;28;20197;-81
2023/07/28 10:13:56;;;;;;;0.10;0.10;;;26.70;99.90;;;;;;5035456;28;20191;-82
2023/07/28 10:16:38;;;;;;;0.10;0.10;;;26.70;99.90;;;;;;5034374;28;20313;-80
2023/07/28 10:19:04;;;;;;;0.10;0.10;;;26.50;99.90;;;;;;5034994;28;20175;-82
2023/07/28 10:21:31;;;;;;;0.10;0.10;;;26.70;99.90;;;;;;5039015;28;20202;-82
2023/07/28 10:23:58;;;;;;;0.10;0.10;;;27.20;99.90;;;;;;5036183;28;20174;-83
2023/07/28 10:26:41;;;;;;;0.10;0.10;;;27.50;99.90;;;;;;5040399;28;20285;-82
2023/07/28 10:29:16;;;;;;;0.10;0.10;;;27.40;99.90;;;;;;5038993;28;20643;-81
2023/07/28 10:31:56;;;;;;;0.10;0.10;;;27.40;99.90;;;;;;5036042;28;20209;-82
2023/07/28 10:34:22;;;;;;;0.10;0.10;;;27.50;99.90;;;;;;5036820;28;20192;-82
2023/07/28 10:36:59;;;;;;;0.10;0.10;;;26.70;99.90;;;;;;5037950;28;20186;-82
2023/07/28 10:39:25;;;;;;;0.10;0.10;;;26.20;99.90;;;;;;5038655;28;20209;-83
2023/07/28 10:42:02;;;;;;;0.10;0.10;;;25.70;99.90;;;;;;5039658;28;20699;-82
2023/07/28 10:44:28;;;;;;;0.10;0.10;;;25.50;99.90;;;;;;5036819;28;20181;-82
2023/07/28 10:46:55;;;;;;;0.10;0.10;;;25.50;99.90;;;;;;5032435;28;20194;-82
2023/07/28 10:49:20;;;;;;;0.10;0.10;;;25.50;99.90;;;;;;5037717;28;20209;-82
2023/07/28 10:51:46;;;;;;;0.10;0.10;;;25.70;99.90;;;;;;5037904;28;20583;-82
2023/07/28 10:54:15;;;;;;;0.10;0.10;;;25.70;99.90;;;;;;5039999;28;20186;-83
2023/07/28 10:56:41;;;;;;;0.10;0.10;;;25.70;99.90;;;;;;5038488;28;20191;-82
2023/07/28 10:59:06;;;;;;;0.10;0.10;;;25.70;99.90;;;;;;5037412;28;20661;-82
2023/07/28 11:01:36;;;;;;;0.10;0.10;;;25.70;99.90;;;;;;5039276;28;20719;-82
2023/07/28 11:04:16;;;;;;;0.10;0.10;;;26.10;99.90;;;;;;5051144;28;20191;-82
2023/07/28 11:06:44;;;;;;;0.10;0.10;;;25.90;99.90;;;;;;5031623;28;20364;-83
2023/07/28 11:09:10;;;;;;;0.10;0.10;;;25.90;99.90;;;;;;5037425;28;20658;-82
2023/07/28 11:11:37;;;;;;;0.10;0.10;;;25.90;99.90;;;;;;5037244;28;20213;-82
2023/07/28 11:14:05;;;;;;;0.10;0.10;;;26.30;99.90;;;;;;5039579;28;20193;-81
2023/07/28 11:16:37;;;;;;;0.10;0.10;;;26.70;99.90;;;;;;5035365;28;20186;-82
2023/07/28 11:19:06;;;;;;;0.10;0.10;;;26.70;99.90;;;;;;5033987;28;20643;-83
2023/07/28 11:21:37;;;;;;;0.10;0.10;;;26.70;99.90;;;;;;5040072;28;20224;-82
2023/07/28 11:24:03;;;;;;;0.10;0.10;;;26.70;99.90;;;;;;5046048;28;20622;-82
2023/07/28 11:26:28;;;;;;;0.10;0.10;;;27.10;99.90;;;;;;5042471;28;20218;-83
2023/07/28 11:28:54;;;;;;;0.10;0.10;;;27.50;99.90;;;;;;5041988;28;20650;-81
2023/07/28 11:31:25;;;;;;;0.10;0.10;;;27.80;99.90;;;;;;5041219;28;20216;-82
2023/07/28 11:33:51;;;;;;;0.10;0.10;;;27.90;99.90;;;;;;5040181;28;20190;-81
2023/07/28 11:36:27;;;;;;;0.10;0.10;;;27.80;99.90;;;;;;5042232;28;20395;-83
2023/07/28 11:38:54;;;;;;;0.10;0.10;;;27.80;99.90;;;;;;5030369;28;20185;-83
2023/07/28 11:41:20;;;;;;;0.10;0.10;;;27.70;99.90;;;;;;5031135;28;20197;-83
2023/07/28 11:43:48;;;;;;;0.10;0.10;;;27.40;99.90;;;;;;5029640;28;20178;-82
2023/07/28 11:46:55;;;;;;;0.10;0.10;;;27.30;99.90;;;;;;5029795;28;20227;-83
2023/07/28 11:49:24;;;;;;;0.10;0.10;;;27.20;99.90;;;;;;4945791;28;20216;-83
2023/07/28 11:51:54;;;;;;;0.10;0.10;;;27.10;99.90;;;;;;4963006;28;20220;-83
2023/07/28 11:54:22;;;;;;;0.10;0.10;;;27.10;99.90;;;;;;4999250;28;20628;-82
2023/07/28 11:56:49;;;;;;;0.30;0.30;;;26.90;99.90;;;;;;5028829;28;20182;-82
2023/07/28 11:59:16;;;;;;;0.10;0.10;;;26.70;99.90;;;;;;5030594;28;20308;-82
2023/07/28 12:01:56;;;;;;;0.10;0.10;;;26.80;99.90;;;;;;5028666;28;20579;-82
2023/07/28 12:04:23;;;;;;;0.10;0.10;;;26.80;99.90;;;;;;5029350;28;20197;-84
2023/07/28 12:07:11;;;;;;;0.10;0.10;;;26.90;99.90;;;;;;5033253;28;20293;-83
2023/07/28 12:09:46;;;;;;;0.10;0.10;;;27.00;99.90;;;;;;5047735;28;20687;-83
2023/07/28 12:12:16;;;;;;;0.10;0.10;;;27.00;99.90;;;;;;5028891;28;20865;-83
2023/07/28 12:14:42;;;;;;;0.10;0.10;;;27.00;99.90;;;;;;5029849;28;20237;-83
2023/07/28 12:17:15;;;;;;;0.10;0.10;;;27.00;99.90;;;;;;5031072;28;20549;-82
2023/07/28 12:20:10;;;;;;;0.10;0.10;;;27.10;99.90;;;;;;5031243;28;20182;-83
2023/07/28 12:22:37;;;;;;;0.10;0.10;;;27.10;99.90;;;;;;5029356;28;20209;-82
2023/07/28 12:25:04;;;;;;;0.10;0.10;;;27.00;99.90;;;;;;5029910;28;20690;-82
2023/07/28 12:27:30;;;;;;;0.10;0.10;;;26.50;99.90;;;;;;5032199;28;20182;-82
2023/07/28 12:29:55;;;;;;;0.10;0.10;;;26.20;99.90;;;;;;5031543;28;20277;-83
2023/07/28 12:32:21;;;;;;;0.10;0.10;;;25.80;99.90;;;;;;5029408;28;20742;-82
2023/07/28 12:34:48;;;;;;;0.10;0.10;;;25.50;99.90;;;;;;5032910;28;20191;-83
2023/07/28 12:37:13;;;;;;;0.10;0.10;;;25.30;99.90;;;;;;5031872;28;20190;-82
2023/07/28 12:39:39;;;;;;;0.10;0.10;;;25.20;99.90;;;;;;5026646;28;20545;-83
2023/07/28 12:42:09;;;;;;;0.10;0.10;;;24.80;99.90;;;;;;5032486;28;20210;-83
2023/07/28 12:44:35;;;;;;;0.10;0.10;;;24.60;99.90;;;;;;5027703;28;20191;-81
2023/07/28 12:47:01;;;;;;;0.10;0.10;;;24.20;99.90;;;;;;5047502;28;20514;-80